Time;durP1;ratioP1;P1;durP2;ratioP2;P2;SDS_P1;SDS_P2;PMS_P1;PMS_P2;Temp;Humidity;BMP_temperature;BMP_pressure;BME280_temperature;BME280_humidity;BME280_pressure;Samples;Min_cycle;Max_cycle;Signal;HPM_P1;HPM_P2
2023/02/04 00:01:56;;;;;;;20.30;12.75;;;10.30;87.90;;;;;;5042476;28;20053;-72
2023/02/04 00:04:21;;;;;;;19.23;13.05;;;10.30;88.00;;;;;;5036124;28;20649;-72
2023/02/04 00:06:47;;;;;;;21.10;12.93;;;10.30;87.90;;;;;;5042910;28;20348;-74
2023/02/04 00:09:15;;;;;;;21.95;13.00;;;10.30;87.90;;;;;;5043124;28;20453;-78
2023/02/04 00:11:41;;;;;;;20.55;12.95;;;10.30;87.90;;;;;;5043819;28;20059;-74
2023/02/04 00:14:06;;;;;;;16.67;11.65;;;10.30;88.00;;;;;;5042456;28;20489;-73
2023/02/04 00:16:32;;;;;;;20.17;11.82;;;10.30;88.00;;;;;;5037506;28;20116;-74
2023/02/04 00:18:58;;;;;;;19.35;12.07;;;10.30;88.10;;;;;;5045589;28;20029;-73
2023/02/04 00:21:23;;;;;;;19.70;11.32;;;10.30;88.10;;;;;;5044341;28;20041;-73
2023/02/04 00:23:50;;;;;;;17.60;11.13;;;10.30;88.20;;;;;;5045284;28;20045;-73
2023/02/04 00:26:15;;;;;;;17.75;11.02;;;10.30;88.20;;;;;;5042665;28;20029;-77
2023/02/04 00:28:41;;;;;;;16.48;9.93;;;10.30;88.30;;;;;;5043284;28;20040;-74
2023/02/04 00:31:07;;;;;;;15.35;10.60;;;10.30;88.30;;;;;;5043813;28;20358;-77
2023/02/04 00:33:32;;;;;;;20.85;10.35;;;10.30;88.40;;;;;;5038920;28;20760;-74
2023/02/04 00:35:58;;;;;;;14.80;10.10;;;10.30;88.30;;;;;;5041973;28;20538;-73
2023/02/04 00:38:24;;;;;;;17.42;9.68;;;10.30;88.30;;;;;;5042294;28;20087;-76
2023/02/04 00:40:49;;;;;;;16.60;9.88;;;10.20;88.30;;;;;;5040093;28;20033;-75
2023/02/04 00:43:15;;;;;;;15.40;9.55;;;10.30;88.20;;;;;;5045024;28;20033;-73
2023/02/04 00:45:41;;;;;;;14.23;8.55;;;10.30;88.20;;;;;;5034915;28;20425;-75
2023/02/04 00:48:06;;;;;;;15.10;8.95;;;10.30;88.10;;;;;;5043552;28;20548;-73
2023/02/04 00:50:35;;;;;;;13.85;8.60;;;10.30;88.10;;;;;;5039240;28;20525;-75
2023/02/04 00:53:00;;;;;;;15.38;8.20;;;10.30;88.10;;;;;;5038325;28;20108;-75
2023/02/04 00:55:26;;;;;;;15.95;8.45;;;10.30;88.00;;;;;;5040731;28;20103;-74
2023/02/04 00:57:52;;;;;;;13.20;7.75;;;10.20;88.00;;;;;;5036311;28;20017;-79
2023/02/04 01:00:18;;;;;;;16.00;9.13;;;10.30;87.90;;;;;;5043285;28;20508;-73
2023/02/04 01:02:44;;;;;;;12.48;7.30;;;10.30;87.80;;;;;;5043719;28;20369;-74
2023/02/04 01:05:09;;;;;;;15.45;7.65;;;10.30;87.80;;;;;;5041406;28;20025;-79
2023/02/04 01:07:35;;;;;;;13.95;7.07;;;10.30;87.80;;;;;;5045391;28;20116;-74
2023/02/04 01:10:02;;;;;;;14.02;7.90;;;10.30;87.80;;;;;;5047964;28;20457;-76
2023/02/04 01:12:28;;;;;;;13.77;7.57;;;10.30;87.80;;;;;;5044134;28;20530;-74
2023/02/04 01:14:54;;;;;;;12.07;6.97;;;10.30;87.70;;;;;;5044304;28;20053;-73
2023/02/04 01:17:20;;;;;;;10.90;7.25;;;10.30;87.70;;;;;;5043095;28;20064;-74
2023/02/04 01:19:46;;;;;;;13.80;7.18;;;10.30;87.80;;;;;;5045101;28;20075;-73
2023/02/04 01:22:12;;;;;;;15.63;7.65;;;10.30;87.70;;;;;;5038755;28;20033;-73
2023/02/04 01:24:38;;;;;;;14.10;7.72;;;10.30;87.70;;;;;;5037349;28;20048;-75
2023/02/04 01:27:04;;;;;;;12.40;8.38;;;10.30;87.80;;;;;;5036766;28;20042;-75
2023/02/04 01:29:30;;;;;;;12.65;7.85;;;10.20;87.80;;;;;;5044650;28;20063;-73
2023/02/04 01:31:56;;;;;;;13.05;7.78;;;10.20;87.70;;;;;;5042265;28;20045;-74
2023/02/04 01:34:21;;;;;;;19.55;9.30;;;10.20;87.70;;;;;;5038431;28;20421;-73
2023/02/04 01:36:47;;;;;;;13.13;7.75;;;10.20;87.90;;;;;;5040348;28;20060;-75
2023/02/04 01:39:14;;;;;;;16.48;8.38;;;10.20;88.00;;;;;;5043024;28;20029;-72
2023/02/04 01:41:40;;;;;;;15.80;8.10;;;10.20;88.00;;;;;;5041268;28;20025;-75
2023/02/04 01:44:05;;;;;;;15.20;8.65;;;10.20;88.00;;;;;;5041547;28;20021;-72
2023/02/04 01:46:34;;;;;;;15.43;9.32;;;10.20;88.00;;;;;;5044173;28;20401;-74
2023/02/04 01:49:00;;;;;;;14.23;8.75;;;10.20;87.90;;;;;;5041058;28;20060;-74
2023/02/04 01:51:29;;;;;;;17.17;8.93;;;10.20;87.90;;;;;;5039797;28;20564;-76
2023/02/04 01:53:55;;;;;;;17.73;9.00;;;10.20;88.00;;;;;;5042498;28;20103;-75
2023/02/04 01:56:25;;;;;;;15.70;8.93;;;10.20;88.00;;;;;;5030045;28;20032;-76
2023/02/04 01:58:52;;;;;;;18.25;9.25;;;10.20;88.10;;;;;;5041225;28;20025;-74
2023/02/04 02:01:40;;;;;;;17.10;9.30;;;10.20;88.20;;;;;;5045563;28;20048;-76
2023/02/04 02:04:07;;;;;;;14.52;9.52;;;10.20;88.20;;;;;;5039754;28;20029;-73
2023/02/04 02:06:35;;;;;;;16.88;10.20;;;10.20;88.20;;;;;;5040155;28;20033;-74
2023/02/04 02:09:01;;;;;;;19.42;11.15;;;10.20;88.30;;;;;;5044387;28;20021;-74
2023/02/04 02:11:27;;;;;;;16.73;10.75;;;10.10;88.50;;;;;;5040425;28;20454;-73
2023/02/04 02:13:53;;;;;;;19.80;10.98;;;10.10;88.80;;;;;;5040356;28;20469;-73
2023/02/04 02:16:19;;;;;;;19.17;11.75;;;10.10;88.90;;;;;;5042285;28;20461;-75
2023/02/04 02:18:45;;;;;;;16.50;10.88;;;10.10;89.20;;;;;;5041698;28;20025;-73
2023/02/04 02:21:15;;;;;;;16.83;10.88;;;10.10;89.40;;;;;;5041297;28;20106;-74
2023/02/04 02:23:50;;;;;;;22.17;11.48;;;10.00;89.50;;;;;;5035824;28;20028;-73
2023/02/04 02:26:18;;;;;;;19.67;11.60;;;10.00;89.70;;;;;;5033356;28;20036;-74
2023/02/04 02:28:46;;;;;;;18.77;11.52;;;10.00;89.80;;;;;;5043135;28;20025;-79
2023/02/04 02:31:13;;;;;;;18.73;10.88;;;9.90;89.90;;;;;;5042051;28;20041;-74
2023/02/04 02:33:39;;;;;;;16.08;10.65;;;10.00;89.90;;;;;;5042843;28;20021;-73
2023/02/04 02:36:05;;;;;;;19.65;11.05;;;10.00;89.90;;;;;;5042490;28;20431;-74
2023/02/04 02:38:31;;;;;;;21.17;10.65;;;9.90;90.00;;;;;;5047406;28;20017;-74
2023/02/04 02:40:57;;;;;;;19.38;10.73;;;9.90;90.10;;;;;;5047198;28;20087;-77
2023/02/04 02:43:25;;;;;;;16.60;10.00;;;9.90;90.20;;;;;;5038553;28;20039;-73
2023/02/04 02:45:52;;;;;;;17.60;10.25;;;9.90;90.40;;;;;;5040709;28;20033;-73
2023/02/04 02:48:18;;;;;;;16.63;10.18;;;9.90;90.40;;;;;;5045370;28;20051;-74
2023/02/04 02:50:44;;;;;;;17.27;10.05;;;9.90;90.60;;;;;;5045491;28;20025;-73
2023/02/04 02:53:16;;;;;;;17.40;9.27;;;9.80;90.60;;;;;;5044863;28;20025;-74
2023/02/04 02:55:43;;;;;;;20.90;10.52;;;9.80;90.80;;;;;;5043058;28;20410;-73
2023/02/04 02:58:27;;;;;;;16.95;8.73;;;9.80;91.10;;;;;;5038926;28;20053;-74
2023/02/04 03:00:53;;;;;;;19.80;9.67;;;9.80;91.10;;;;;;5040042;28;20082;-75
2023/02/04 03:03:29;;;;;;;18.70;9.73;;;9.80;91.30;;;;;;5043893;28;20353;-74
2023/02/04 03:05:58;;;;;;;17.83;9.13;;;9.80;91.50;;;;;;5037695;28;20040;-79
2023/02/04 03:08:24;;;;;;;17.65;10.10;;;9.70;91.70;;;;;;5042043;28;20048;-74
2023/02/04 03:10:50;;;;;;;19.05;10.10;;;9.70;92.00;;;;;;5046336;28;20098;-72
2023/02/04 03:13:17;;;;;;;19.20;11.00;;;9.70;92.10;;;;;;5048368;28;20103;-74
2023/02/04 03:15:45;;;;;;;18.80;11.05;;;9.60;92.50;;;;;;5044859;28;20049;-72
2023/02/04 03:18:14;;;;;;;21.88;11.32;;;9.60;92.60;;;;;;5045813;28;20024;-72
2023/02/04 03:20:41;;;;;;;24.17;11.70;;;9.60;92.60;;;;;;5042357;28;20440;-76
2023/02/04 03:23:06;;;;;;;20.67;11.65;;;9.60;92.70;;;;;;5045072;28;20025;-74
2023/02/04 03:25:33;;;;;;;20.55;12.13;;;9.60;92.80;;;;;;5044872;28;20029;-74
2023/02/04 03:27:58;;;;;;;20.75;12.88;;;9.60;92.80;;;;;;5039705;28;20381;-75
2023/02/04 03:30:25;;;;;;;21.27;14.18;;;9.60;92.80;;;;;;5045361;28;20028;-74
2023/02/04 03:32:51;;;;;;;22.60;13.95;;;9.60;92.90;;;;;;5046033;28;20044;-76
2023/02/04 03:35:17;;;;;;;23.10;14.35;;;9.60;93.00;;;;;;5040889;28;20033;-73
2023/02/04 03:37:42;;;;;;;23.80;14.20;;;9.60;93.00;;;;;;5041469;28;20514;-75
2023/02/04 03:40:09;;;;;;;19.67;14.00;;;9.60;93.10;;;;;;5040738;28;20045;-73
2023/02/04 03:42:35;;;;;;;22.25;15.68;;;9.60;93.10;;;;;;5046263;28;20025;-73
2023/02/04 03:45:00;;;;;;;24.92;14.85;;;9.60;93.00;;;;;;5044527;28;20028;-75
2023/02/04 03:47:26;;;;;;;23.80;15.50;;;9.60;93.10;;;;;;5039812;28;20124;-74
2023/02/04 03:49:52;;;;;;;22.25;15.15;;;9.50;93.20;;;;;;5042015;28;20037;-75
2023/02/04 03:52:19;;;;;;;22.30;15.15;;;9.50;93.30;;;;;;5045393;28;20347;-73
2023/02/04 03:54:45;;;;;;;24.85;16.27;;;9.50;93.20;;;;;;5038532;28;20346;-76
2023/02/04 03:57:10;;;;;;;24.20;16.15;;;9.60;93.20;;;;;;5043292;28;20044;-72
2023/02/04 03:59:36;;;;;;;30.23;16.95;;;9.50;93.30;;;;;;5044663;28;20481;-75
2023/02/04 04:02:02;;;;;;;23.20;16.77;;;9.50;93.30;;;;;;5040599;28;20037;-73
2023/02/04 04:04:28;;;;;;;34.58;18.40;;;9.50;93.30;;;;;;5045898;28;20029;-78
2023/02/04 04:06:53;;;;;;;28.08;18.20;;;9.50;93.40;;;;;;5043720;28;20030;-76
2023/02/04 04:09:19;;;;;;;26.35;17.38;;;9.50;93.40;;;;;;5038103;28;20021;-73
2023/02/04 04:11:45;;;;;;;27.98;17.95;;;9.50;93.50;;;;;;5042482;28;20049;-73
2023/02/04 04:14:10;;;;;;;30.45;17.02;;;9.50;93.50;;;;;;5044516;28;20021;-73
2023/02/04 04:16:36;;;;;;;32.00;18.13;;;9.50;93.60;;;;;;5044587;28;20039;-74
2023/02/04 04:19:02;;;;;;;28.65;17.80;;;9.50;93.60;;;;;;5042100;28;20017;-72
2023/02/04 04:21:27;;;;;;;29.30;18.70;;;9.50;93.60;;;;;;5044680;28;20030;-73
2023/02/04 04:23:53;;;;;;;28.83;17.83;;;9.50;93.60;;;;;;5045574;28;20040;-74
2023/02/04 04:26:19;;;;;;;25.55;17.05;;;9.50;93.60;;;;;;5041094;28;20305;-76
2023/02/04 04:28:44;;;;;;;29.77;18.27;;;9.50;93.60;;;;;;5038098;28;20586;-73
2023/02/04 04:31:10;;;;;;;29.75;17.63;;;9.50;93.60;;;;;;5038255;28;20033;-76
2023/02/04 04:33:36;;;;;;;27.65;16.35;;;9.50;93.60;;;;;;5039984;28;20425;-75
2023/02/04 04:36:01;;;;;;;29.00;17.60;;;9.50;93.50;;;;;;5042171;28;20151;-72
2023/02/04 04:38:27;;;;;;;31.17;16.75;;;9.50;93.50;;;;;;5043011;28;20086;-73
2023/02/04 04:40:53;;;;;;;28.13;17.08;;;9.60;93.40;;;;;;5045404;28;20033;-74
2023/02/04 04:43:19;;;;;;;26.80;14.82;;;9.60;93.40;;;;;;5039568;28;20082;-72
2023/02/04 04:45:45;;;;;;;27.95;15.88;;;9.60;93.40;;;;;;5044093;28;20091;-72
2023/02/04 04:48:11;;;;;;;24.67;14.80;;;9.60;93.30;;;;;;5035514;28;20393;-74
2023/02/04 04:50:36;;;;;;;29.38;16.27;;;9.60;93.30;;;;;;5043377;28;20021;-73
2023/02/04 04:53:02;;;;;;;23.65;16.13;;;9.60;93.40;;;;;;5038951;28;20055;-73
2023/02/04 04:55:28;;;;;;;25.98;14.77;;;9.60;93.40;;;;;;5041419;28;20040;-72
2023/02/04 04:57:53;;;;;;;24.00;14.00;;;9.50;93.30;;;;;;5042610;28;20052;-74
2023/02/04 05:00:20;;;;;;;23.88;14.02;;;9.50;93.30;;;;;;5042047;28;20021;-72
2023/02/04 05:02:46;;;;;;;21.80;13.55;;;9.50;93.30;;;;;;5038003;28;20036;-73
2023/02/04 05:05:12;;;;;;;24.65;14.20;;;9.60;93.30;;;;;;5041494;28;20029;-75
2023/02/04 05:07:38;;;;;;;22.85;13.43;;;9.60;93.30;;;;;;5043175;28;20030;-72
2023/02/04 05:10:04;;;;;;;21.17;13.02;;;9.60;93.30;;;;;;5046440;28;20398;-75
2023/02/04 05:12:30;;;;;;;25.02;13.07;;;9.60;93.30;;;;;;5041491;28;20108;-73
2023/02/04 05:14:56;;;;;;;22.75;13.20;;;9.60;93.20;;;;;;5042862;28;20120;-72
2023/02/04 05:17:22;;;;;;;21.77;13.05;;;9.60;93.20;;;;;;5040575;28;20021;-73
2023/02/04 05:19:47;;;;;;;22.65;12.85;;;9.60;93.20;;;;;;5044239;28;20025;-75
2023/02/04 05:22:13;;;;;;;22.85;12.88;;;9.60;93.10;;;;;;5043761;28;20025;-73
2023/02/04 05:24:39;;;;;;;21.60;12.82;;;9.60;93.10;;;;;;5045526;28;20033;-76
2023/02/04 05:27:04;;;;;;;25.58;14.40;;;9.60;93.20;;;;;;5038304;28;20025;-73
2023/02/04 05:29:30;;;;;;;23.00;13.40;;;9.60;93.10;;;;;;5041203;28;20356;-72
2023/02/04 05:31:56;;;;;;;19.55;11.80;;;9.60;93.10;;;;;;5038468;28;20075;-76
2023/02/04 05:34:21;;;;;;;25.70;13.80;;;9.50;93.10;;;;;;5041024;28;20635;-74
2023/02/04 05:36:47;;;;;;;26.02;13.85;;;9.50;93.10;;;;;;5043494;28;20538;-73
2023/02/04 05:39:13;;;;;;;22.50;13.65;;;9.50;92.90;;;;;;5039311;28;20025;-73
2023/02/04 05:41:39;;;;;;;23.92;13.35;;;9.50;92.90;;;;;;5039917;28;20389;-73
2023/02/04 05:44:05;;;;;;;24.20;13.73;;;9.50;92.90;;;;;;5043467;28;20020;-73
2023/02/04 05:46:30;;;;;;;22.52;14.43;;;9.40;92.80;;;;;;5037214;28;20025;-73
2023/02/04 05:48:56;;;;;;;23.27;12.75;;;9.40;92.80;;;;;;5043162;28;20049;-73
2023/02/04 05:51:22;;;;;;;22.70;13.63;;;9.40;92.80;;;;;;5039490;28;20146;-74
2023/02/04 05:53:47;;;;;;;22.73;13.85;;;9.40;92.70;;;;;;5042714;28;20408;-74
2023/02/04 05:56:13;;;;;;;21.40;13.55;;;9.40;92.80;;;;;;5044635;28;20075;-73
2023/02/04 05:58:38;;;;;;;18.88;12.75;;;9.40;92.80;;;;;;5037908;28;20071;-75
2023/02/04 06:01:04;;;;;;;22.73;13.70;;;9.40;92.70;;;;;;5042069;28;20029;-74
2023/02/04 06:03:31;;;;;;;26.00;13.35;;;9.40;92.60;;;;;;5042249;28;20020;-72
2023/02/04 06:05:57;;;;;;;21.05;12.18;;;9.40;92.60;;;;;;5043068;28;20548;-74
2023/02/04 06:08:23;;;;;;;23.45;12.98;;;9.40;92.70;;;;;;5036475;28;20021;-73
2023/02/04 06:10:48;;;;;;;22.85;14.02;;;9.40;92.60;;;;;;5035113;28;20065;-73
2023/02/04 06:13:14;;;;;;;26.23;12.93;;;9.40;92.60;;;;;;5046332;28;20051;-74
2023/02/04 06:15:40;;;;;;;22.95;12.40;;;9.40;92.60;;;;;;5044160;28;20542;-73
2023/02/04 06:18:06;;;;;;;22.27;12.93;;;9.40;92.60;;;;;;5048341;28;20015;-73
2023/02/04 06:20:32;;;;;;;21.90;12.57;;;9.30;92.60;;;;;;5045818;28;20381;-76
2023/02/04 06:22:57;;;;;;;18.65;12.52;;;9.30;92.60;;;;;;5046776;28;20625;-72
2023/02/04 06:25:23;;;;;;;23.23;12.48;;;9.30;92.60;;;;;;5046779;28;20550;-72
2023/02/04 06:27:49;;;;;;;20.85;12.85;;;9.30;92.60;;;;;;5047845;28;20021;-77
2023/02/04 06:30:15;;;;;;;20.55;12.85;;;9.20;92.60;;;;;;5044628;28;20033;-76
2023/02/04 06:32:41;;;;;;;23.65;12.85;;;9.20;92.60;;;;;;5045679;28;20079;-75
2023/02/04 06:35:08;;;;;;;20.77;11.45;;;9.20;92.70;;;;;;5048293;28;20028;-75
2023/02/04 06:37:34;;;;;;;25.27;12.88;;;9.10;92.70;;;;;;5045442;28;20528;-74
2023/02/04 06:39:59;;;;;;;18.33;11.88;;;9.10;92.70;;;;;;5046900;28;20078;-76
2023/02/04 06:42:25;;;;;;;19.17;11.73;;;9.00;92.70;;;;;;5046435;28;20025;-76
2023/02/04 06:44:51;;;;;;;18.13;11.57;;;9.00;92.70;;;;;;5044247;28;20041;-74
2023/02/04 06:47:17;;;;;;;17.52;11.70;;;9.00;92.70;;;;;;5045460;28;20028;-75
2023/02/04 06:49:43;;;;;;;18.98;12.50;;;8.90;92.60;;;;;;5048075;28;20707;-74
2023/02/04 06:52:08;;;;;;;20.40;11.20;;;8.90;92.60;;;;;;5042182;28;20506;-76
2023/02/04 06:54:34;;;;;;;16.67;10.40;;;8.80;92.60;;;;;;5047014;28;20029;-78
2023/02/04 06:57:05;;;;;;;19.13;11.10;;;8.70;92.70;;;;;;5043883;28;20415;-74
2023/02/04 06:59:36;;;;;;;17.95;10.80;;;8.70;92.70;;;;;;5044528;28;20025;-73
2023/02/04 07:02:03;;;;;;;16.13;10.05;;;8.60;92.70;;;;;;5043588;28;20029;-74
2023/02/04 07:04:28;;;;;;;17.05;10.55;;;8.60;92.70;;;;;;5047656;28;20064;-75
2023/02/04 07:06:54;;;;;;;21.75;10.70;;;8.60;92.80;;;;;;5041819;28;20061;-74
2023/02/04 07:09:20;;;;;;;17.88;11.98;;;8.50;92.80;;;;;;5042427;28;20021;-75
2023/02/04 07:11:46;;;;;;;16.95;11.30;;;8.50;92.80;;;;;;5043842;28;20549;-75
2023/02/04 07:14:12;;;;;;;18.52;11.32;;;8.50;92.90;;;;;;5042982;28;20021;-74
2023/02/04 07:16:37;;;;;;;16.98;11.65;;;8.40;92.90;;;;;;5042178;28;20033;-75
2023/02/04 07:19:03;;;;;;;19.25;12.57;;;8.50;92.90;;;;;;5038888;28;20139;-78
2023/02/04 07:21:29;;;;;;;17.95;12.32;;;8.50;92.90;;;;;;5038807;28;20141;-75
2023/02/04 07:23:55;;;;;;;20.10;12.98;;;8.50;92.90;;;;;;5044626;28;20049;-74
2023/02/04 07:26:21;;;;;;;18.52;11.57;;;8.60;92.70;;;;;;5046976;28;20495;-74
2023/02/04 07:28:47;;;;;;;18.77;11.68;;;8.60;92.50;;;;;;5044706;28;20120;-74
2023/02/04 07:31:13;;;;;;;18.50;10.77;;;8.60;92.50;;;;;;5038612;28;20057;-74
2023/02/04 07:33:39;;;;;;;20.63;12.50;;;8.60;92.40;;;;;;5039557;28;20090;-74
2023/02/04 07:36:05;;;;;;;18.55;11.50;;;8.60;92.30;;;;;;5045000;28;20189;-74
2023/02/04 07:38:30;;;;;;;18.85;11.57;;;8.60;92.20;;;;;;5042812;28;20025;-73
2023/02/04 07:40:56;;;;;;;15.73;10.63;;;8.60;92.10;;;;;;5045569;28;20029;-73
2023/02/04 07:43:22;;;;;;;19.60;11.75;;;8.70;92.10;;;;;;5044242;28;20416;-74
2023/02/04 07:45:47;;;;;;;16.45;10.63;;;8.70;92.00;;;;;;5042244;28;20112;-74
2023/02/04 07:48:13;;;;;;;17.67;10.77;;;8.70;91.80;;;;;;5044758;28;20480;-75
2023/02/04 07:50:39;;;;;;;18.25;10.55;;;8.80;91.70;;;;;;5044544;28;20029;-74
2023/02/04 07:53:04;;;;;;;19.73;11.55;;;8.80;91.50;;;;;;5042978;28;20428;-74
2023/02/04 07:55:30;;;;;;;16.88;12.25;;;8.80;91.40;;;;;;5044295;28;20114;-73
2023/02/04 07:57:56;;;;;;;20.77;13.27;;;8.80;91.30;;;;;;5043397;28;20075;-74
2023/02/04 08:00:22;;;;;;;19.17;10.90;;;8.70;91.40;;;;;;5046869;28;20028;-74
2023/02/04 08:02:48;;;;;;;20.02;12.30;;;8.80;91.40;;;;;;5038330;28;20049;-74
2023/02/04 08:05:14;;;;;;;23.25;12.05;;;8.80;91.40;;;;;;5036728;28;20920;-74
2023/02/04 08:07:39;;;;;;;22.02;11.55;;;8.80;91.50;;;;;;5041547;28;20029;-75
2023/02/04 08:10:07;;;;;;;22.67;12.45;;;8.90;91.40;;;;;;5038142;28;20017;-73
2023/02/04 08:12:32;;;;;;;18.40;11.23;;;8.90;91.20;;;;;;5040356;28;20037;-74
2023/02/04 08:14:58;;;;;;;16.48;11.30;;;8.90;91.10;;;;;;5043309;28;20499;-73
2023/02/04 08:17:24;;;;;;;21.92;11.57;;;8.90;90.90;;;;;;5035691;28;20135;-75
2023/02/04 08:19:50;;;;;;;20.10;11.02;;;8.90;90.80;;;;;;5043007;28;20136;-75
2023/02/04 08:22:16;;;;;;;20.27;12.18;;;8.90;90.70;;;;;;5040221;28;20120;-73
2023/02/04 08:24:41;;;;;;;22.00;11.40;;;8.80;90.60;;;;;;5043332;28;20179;-74
2023/02/04 08:27:07;;;;;;;20.40;11.02;;;8.90;90.60;;;;;;5038648;28;20032;-74
2023/02/04 08:29:33;;;;;;;20.35;11.40;;;9.00;90.60;;;;;;5037188;28;20017;-74
2023/02/04 08:31:58;;;;;;;19.40;11.13;;;9.00;90.50;;;;;;5036988;28;20033;-74
2023/02/04 08:34:24;;;;;;;17.10;10.10;;;9.00;90.50;;;;;;5040393;28;21968;-74
2023/02/04 08:36:50;;;;;;;22.45;11.10;;;9.10;90.50;;;;;;5039431;28;20066;-73
2023/02/04 08:39:15;;;;;;;18.23;10.05;;;9.10;90.30;;;;;;5040655;28;20025;-74
2023/02/04 08:41:41;;;;;;;21.38;10.88;;;9.10;90.20;;;;;;5037208;28;20175;-74
2023/02/04 08:44:07;;;;;;;15.82;9.60;;;9.10;90.10;;;;;;5039298;28;20056;-74
2023/02/04 08:46:32;;;;;;;17.67;9.90;;;9.20;90.20;;;;;;5038427;28;20128;-74
2023/02/04 08:48:58;;;;;;;20.63;9.80;;;9.30;89.90;;;;;;5039032;28;20424;-74
2023/02/04 08:51:24;;;;;;;16.17;10.18;;;9.30;89.80;;;;;;5042395;28;20029;-74
2023/02/04 08:53:49;;;;;;;18.83;9.60;;;9.40;89.90;;;;;;5039029;28;20361;-73
2023/02/04 08:56:15;;;;;;;19.15;9.18;;;9.40;89.80;;;;;;5036671;28;20399;-72
2023/02/04 08:58:42;;;;;;;21.02;10.40;;;9.40;89.30;;;;;;5036081;28;20104;-72
2023/02/04 09:01:10;;;;;;;16.15;10.05;;;9.40;89.20;;;;;;5041526;28;20040;-71
2023/02/04 09:03:36;;;;;;;20.00;11.23;;;9.40;89.30;;;;;;5040669;28;20043;-72
2023/02/04 09:06:01;;;;;;;18.75;10.70;;;9.50;89.20;;;;;;5039362;28;20511;-73
2023/02/04 09:08:27;;;;;;;19.13;10.00;;;9.60;89.10;;;;;;5040354;28;20021;-73
2023/02/04 09:10:52;;;;;;;20.58;10.70;;;9.70;88.90;;;;;;5044786;28;20408;-73
2023/02/04 09:13:18;;;;;;;18.95;9.90;;;9.70;88.70;;;;;;5045238;28;20534;-74
2023/02/04 09:15:44;;;;;;;14.02;9.18;;;9.80;88.60;;;;;;5039681;28;20043;-73
2023/02/04 09:18:17;;;;;;;21.95;9.55;;;9.90;88.20;;;;;;5045615;28;20032;-73
2023/02/04 09:20:44;;;;;;;18.45;9.23;;;9.90;88.20;;;;;;5037493;28;20083;-73
2023/02/04 09:23:11;;;;;;;17.92;8.50;;;9.90;88.00;;;;;;5043479;28;20048;-75
2023/02/04 09:25:40;;;;;;;17.52;8.85;;;9.90;87.90;;;;;;5042500;28;20047;-73
2023/02/04 09:28:10;;;;;;;17.67;8.48;;;10.00;88.00;;;;;;5042312;28;20024;-73
2023/02/04 09:30:36;;;;;;;15.07;8.48;;;10.10;87.90;;;;;;5042153;28;20033;-73
2023/02/04 09:33:01;;;;;;;14.82;7.63;;;10.10;87.50;;;;;;5041996;28;20020;-74
2023/02/04 09:35:27;;;;;;;13.57;7.53;;;10.10;87.40;;;;;;5043050;28;20086;-73
2023/02/04 09:37:53;;;;;;;12.82;7.45;;;10.10;87.30;;;;;;5043340;28;20061;-74
2023/02/04 09:40:19;;;;;;;13.32;7.03;;;10.20;87.40;;;;;;5041167;28;20074;-74
2023/02/04 09:42:48;;;;;;;14.73;8.25;;;10.20;87.20;;;;;;5043869;28;20033;-74
2023/02/04 09:45:34;;;;;;;15.45;8.27;;;10.30;87.30;;;;;;5040679;28;20060;-77
2023/02/04 09:48:03;;;;;;;13.68;7.47;;;10.40;87.00;;;;;;5038527;28;20116;-74
2023/02/04 09:50:32;;;;;;;12.23;7.53;;;10.50;87.20;;;;;;5037042;28;20067;-74
2023/02/04 09:53:01;;;;;;;16.33;7.75;;;10.50;86.90;;;;;;5038658;28;20022;-75
2023/02/04 09:55:39;;;;;;;16.08;7.55;;;10.60;86.90;;;;;;5036655;28;20095;-75
2023/02/04 09:58:16;;;;;;;15.82;6.78;;;10.60;86.60;;;;;;5038336;28;20040;-74
2023/02/04 10:00:43;;;;;;;21.73;8.00;;;10.60;86.20;;;;;;5038665;28;20320;-75
2023/02/04 10:03:21;;;;;;;16.92;7.38;;;10.60;86.50;;;;;;5039984;28;20070;-76
2023/02/04 10:05:47;;;;;;;14.30;7.80;;;10.60;86.30;;;;;;5036723;28;20029;-74
2023/02/04 10:08:16;;;;;;;13.48;7.43;;;10.70;86.30;;;;;;5041190;28;20017;-74
2023/02/04 10:10:43;;;;;;;10.68;6.60;;;10.70;86.00;;;;;;5039810;28;20146;-74
2023/02/04 10:13:23;;;;;;;15.23;7.47;;;10.80;85.80;;;;;;5041956;28;20025;-75
2023/02/04 10:15:49;;;;;;;12.57;6.85;;;10.70;85.50;;;;;;5030531;28;20328;-74
2023/02/04 10:18:29;;;;;;;15.30;7.05;;;10.80;85.70;;;;;;5034961;28;20084;-75
2023/02/04 10:21:28;;;;;;;17.20;8.38;;;10.80;85.90;;;;;;5038802;28;20033;-75
2023/02/04 10:23:59;;;;;;;12.68;6.53;;;10.90;85.60;;;;;;5028195;28;20119;-74
2023/02/04 10:26:28;;;;;;;14.38;7.68;;;11.00;85.20;;;;;;5036198;28;20493;-76
2023/02/04 10:28:59;;;;;;;14.23;6.88;;;11.00;84.90;;;;;;5040898;28;20039;-74
2023/02/04 10:31:39;;;;;;;13.93;6.90;;;11.10;85.10;;;;;;5036317;28;20079;-76
2023/02/04 10:34:04;;;;;;;16.48;7.03;;;11.20;84.90;;;;;;5037239;28;20363;-74
2023/02/04 10:36:30;;;;;;;15.00;6.40;;;11.10;84.00;;;;;;5040955;28;20052;-74
2023/02/04 10:39:15;;;;;;;14.20;6.80;;;11.10;83.80;;;;;;5040501;28;20120;-75
2023/02/04 10:41:54;;;;;;;11.38;5.78;;;11.10;83.50;;;;;;5040197;28;20029;-75
2023/02/04 10:44:26;;;;;;;14.48;6.80;;;11.10;83.20;;;;;;5040486;28;20531;-75
2023/02/04 10:47:20;;;;;;;13.10;6.53;;;11.10;83.20;;;;;;5037898;28;20037;-74
2023/02/04 10:50:03;;;;;;;14.40;6.72;;;11.10;83.10;;;;;;5035766;28;20374;-75
2023/02/04 10:52:40;;;;;;;11.98;6.10;;;11.10;83.20;;;;;;5036648;28;20052;-74
2023/02/04 10:55:15;;;;;;;12.93;7.28;;;11.10;83.00;;;;;;5040907;28;20052;-75
2023/02/04 10:57:43;;;;;;;13.73;6.85;;;11.10;83.20;;;;;;5038848;28;20065;-75
2023/02/04 11:00:20;;;;;;;11.93;6.60;;;11.10;83.50;;;;;;5041856;28;20075;-74
2023/02/04 11:03:02;;;;;;;15.32;6.85;;;11.10;83.30;;;;;;5042776;28;20471;-75
2023/02/04 11:05:33;;;;;;;14.43;7.25;;;11.10;83.30;;;;;;5039951;28;20064;-75
2023/02/04 11:07:59;;;;;;;12.43;6.78;;;11.20;83.50;;;;;;5047943;28;20395;-74
2023/02/04 11:10:30;;;;;;;14.50;7.00;;;11.20;83.40;;;;;;5045624;28;20035;-75
2023/02/04 11:12:56;;;;;;;15.73;7.75;;;11.20;83.30;;;;;;5045203;28;20052;-74
2023/02/04 11:15:46;;;;;;;12.98;7.30;;;11.20;82.80;;;;;;5043341;28;20056;-74
2023/02/04 11:18:20;;;;;;;13.82;7.47;;;11.10;83.00;;;;;;5044145;28;20556;-74
2023/02/04 11:20:47;;;;;;;;;;;11.10;83.00;;;;;;5043103;28;20090;-75
2023/02/04 11:23:33;;;;;;;13.80;6.47;;;11.10;83.20;;;;;;5032873;28;19909;-75
2023/02/04 11:26:09;;;;;;;13.50;7.00;;;11.20;83.10;;;;;;5029286;28;20483;-75
2023/02/04 11:29:08;;;;;;;14.00;6.90;;;11.20;83.10;;;;;;5031866;28;20061;-75
2023/02/04 11:31:33;;;;;;;11.55;7.63;;;11.30;83.10;;;;;;5017873;28;20053;-74
2023/02/04 11:34:13;;;;;;;14.52;7.13;;;11.30;83.10;;;;;;5036576;28;20447;-75
2023/02/04 11:37:03;;;;;;;14.00;6.43;;;11.20;82.90;;;;;;5029658;28;20266;-76
2023/02/04 11:39:46;;;;;;;14.65;6.43;;;11.10;82.80;;;;;;5029335;28;20040;-75
2023/02/04 11:42:23;;;;;;;13.85;6.47;;;11.20;82.40;;;;;;5032576;28;20017;-75
2023/02/04 11:45:01;;;;;;;13.38;6.30;;;11.20;81.70;;;;;;5034218;28;20027;-75
2023/02/04 11:47:33;;;;;;;11.63;6.05;;;11.30;81.90;;;;;;5032478;28;20440;-74
2023/02/04 11:50:10;;;;;;;13.07;5.72;;;11.40;81.50;;;;;;5041277;28;20028;-75
2023/02/04 11:52:36;;;;;;;11.48;6.13;;;11.40;81.00;;;;;;5041853;28;20489;-75
2023/02/04 11:55:01;;;;;;;14.27;7.20;;;11.30;81.30;;;;;;5041208;28;20087;-75
2023/02/04 11:57:27;;;;;;;11.98;6.43;;;11.30;81.60;;;;;;5042271;28;20358;-75
2023/02/04 11:59:53;;;;;;;12.15;7.35;;;11.30;81.60;;;;;;5042435;28;20362;-75
2023/02/04 12:02:22;;;;;;;11.15;6.65;;;11.20;81.70;;;;;;5044346;28;20041;-76
2023/02/04 12:04:54;;;;;;;10.45;6.15;;;11.30;81.40;;;;;;5040811;28;20037;-76
2023/02/04 12:07:29;;;;;;;10.05;5.63;;;11.30;81.60;;;;;;5042955;28;20118;-75
2023/02/04 12:09:56;;;;;;;14.93;6.03;;;11.40;81.50;;;;;;5043589;28;20053;-76
2023/02/04 12:12:41;;;;;;;12.50;6.60;;;11.30;81.30;;;;;;5041680;28;20477;-76
2023/02/04 12:15:31;;;;;;;12.80;7.22;;;11.40;81.50;;;;;;5036846;28;20142;-76
2023/02/04 12:18:01;;;;;;;14.63;7.53;;;11.40;81.80;;;;;;5036797;28;20098;-76
2023/02/04 12:20:27;;;;;;;14.52;7.75;;;11.40;81.60;;;;;;5039134;28;20103;-76
2023/02/04 12:22:53;;;;;;;10.65;6.53;;;11.40;81.90;;;;;;5039669;28;20096;-76
2023/02/04 12:25:19;;;;;;;12.20;6.60;;;11.50;82.00;;;;;;5043113;28;20459;-75
2023/02/04 12:27:44;;;;;;;17.92;6.55;;;11.50;81.70;;;;;;5044480;28;20036;-75
2023/02/04 12:30:11;;;;;;;11.15;7.05;;;11.40;81.40;;;;;;5041382;28;20036;-76
2023/02/04 12:32:37;;;;;;;15.02;6.97;;;11.40;81.50;;;;;;5045013;28;20481;-76
2023/02/04 12:35:03;;;;;;;15.45;6.80;;;11.40;81.80;;;;;;5039789;28;20025;-75
2023/02/04 12:37:29;;;;;;;11.45;6.32;;;11.40;81.70;;;;;;5042075;28;20033;-76
2023/02/04 12:39:54;;;;;;;12.75;7.47;;;11.40;81.50;;;;;;5042268;28;20075;-76